Time;durP1;ratioP1;P1;durP2;ratioP2;P2;SDS_P1;SDS_P2;PMS_P1;PMS_P2;Temp;Humidity;BMP_temperature;BMP_pressure;BME280_temperature;BME280_humidity;BME280_pressure;Samples;Min_cycle;Max_cycle;Signal;HPM_P1;HPM_P2
2021/08/13 00:02:00;;;;;;;8.38;5.32;;;;;;;27.06;54.94;100399.56;4863749;29;20045;-86
2021/08/13 00:04:27;;;;;;;7.32;6.22;;;;;;;26.93;55.54;100402.00;4862393;29;20113;-85
2021/08/13 00:06:54;;;;;;;7.05;6.35;;;;;;;26.95;55.24;100398.13;4862971;29;20099;-83
2021/08/13 00:09:22;;;;;;;10.27;6.30;;;;;;;26.96;55.21;100409.69;4862802;29;20097;-83
2021/08/13 00:11:49;;;;;;;5.32;4.82;;;;;;;26.93;55.15;100404.69;4862451;29;20401;-83
2021/08/13 00:14:16;;;;;;;9.40;5.75;;;;;;;27.05;55.02;100422.81;4868366;29;20105;-82
2021/08/13 00:16:44;;;;;;;8.07;5.95;;;;;;;26.98;55.32;100421.84;4864437;29;20063;-82
2021/08/13 00:19:12;;;;;;;8.18;6.53;;;;;;;26.77;56.13;100424.34;4875779;29;20495;-82
2021/08/13 00:21:41;;;;;;;8.70;6.75;;;;;;;26.76;56.14;100430.72;4867138;29;20045;-82
2021/08/13 00:24:08;;;;;;;8.27;6.22;;;;;;;26.74;56.28;100430.91;4868654;29;20065;-82
2021/08/13 00:26:35;;;;;;;8.45;6.20;;;;;;;26.78;56.31;100431.38;4861999;29;20041;-82
2021/08/13 00:29:02;;;;;;;9.00;6.03;;;;;;;26.70;56.30;100428.75;4872477;29;20085;-85
2021/08/13 00:31:28;;;;;;;7.43;6.32;;;;;;;26.98;55.38;100421.84;4868909;29;20049;-85
2021/08/13 00:33:57;;;;;;;11.02;6.63;;;;;;;27.27;54.41;100414.97;4876614;29;20453;-85
2021/08/13 00:36:24;;;;;;;6.95;6.13;;;;;;;27.11;54.41;100411.44;4877619;29;20053;-85
2021/08/13 00:38:51;;;;;;;7.85;6.63;;;;;;;27.07;54.33;100407.44;4860630;29;20050;-85
2021/08/13 00:41:19;;;;;;;9.35;5.57;;;;;;;27.14;53.76;100411.06;4866468;29;20057;-85
2021/08/13 00:43:48;;;;;;;7.45;5.97;;;;;;;27.32;53.32;100417.91;4867832;29;20068;-85
2021/08/13 00:46:18;;;;;;;10.50;6.13;;;;;;;27.36;53.27;100417.38;4879264;29;20416;-85
2021/08/13 00:49:03;;;;;;;7.35;6.00;;;;;;;27.34;53.26;100415.91;4862083;29;20052;-85
2021/08/13 00:51:39;;;;;;;6.80;5.93;;;;;;;27.24;53.01;100420.69;4879235;29;20053;-83
2021/08/13 00:54:10;;;;;;;8.38;5.47;;;;;;;27.13;53.62;100413.91;4877604;29;20060;-81
2021/08/13 00:56:42;;;;;;;6.70;5.65;;;;;;;27.06;53.44;100419.13;4860771;29;20132;-81
2021/08/13 00:59:37;;;;;;;9.30;5.70;;;;;;;27.06;53.71;100413.78;4858535;29;20505;-83
2021/08/13 01:02:17;;;;;;;7.85;5.90;;;;;;;27.08;53.83;100409.09;4860500;29;20052;-84
2021/08/13 01:04:47;;;;;;;7.65;6.22;;;;;;;27.16;53.29;100408.19;4860255;29;20046;-84
2021/08/13 01:07:21;;;;;;;6.90;6.30;;;;;;;27.24;52.94;100418.00;4866494;29;20493;-84
2021/08/13 01:09:48;;;;;;;9.30;5.88;;;;;;;27.24;53.18;100409.97;4878487;29;20102;-84
2021/08/13 01:12:28;;;;;;;9.07;6.45;;;;;;;27.03;53.94;100414.13;4863373;29;20087;-84
2021/08/13 01:14:56;;;;;;;7.78;5.65;;;;;;;26.88;54.21;100408.72;4872794;29;20045;-84
2021/08/13 01:17:28;;;;;;;8.90;5.97;;;;;;;26.78;54.54;100405.44;4870234;29;20045;-84
2021/08/13 01:20:15;;;;;;;8.82;5.60;;;;;;;27.02;53.86;100400.94;4860294;29;20050;-83
2021/08/13 01:22:50;;;;;;;6.63;5.97;;;;;;;27.09;53.56;100408.09;4861620;29;20140;-82
2021/08/13 01:25:25;;;;;;;7.55;5.13;;;;;;;27.03;53.61;100408.78;4876098;29;20049;-83
2021/08/13 01:27:55;;;;;;;8.88;5.47;;;;;;;27.13;53.36;100411.25;4859680;29;20045;-84
2021/08/13 01:30:26;;;;;;;8.88;6.20;;;;;;;27.09;53.45;100418.78;4860240;29;20048;-85
2021/08/13 01:33:01;;;;;;;6.85;5.30;;;;;;;27.08;53.16;100419.81;4874887;29;20125;-86
2021/08/13 01:35:33;;;;;;;7.22;5.55;;;;;;;27.19;52.77;100420.41;4860176;29;20064;-86
2021/08/13 01:38:13;;;;;;;7.47;6.35;;;;;;;27.27;52.77;100417.63;4844874;29;20042;-85
2021/08/13 01:40:46;;;;;;;8.07;5.72;;;;;;;27.21;52.86;100418.34;4862110;29;20045;-85
2021/08/13 01:43:20;;;;;;;8.93;6.07;;;;;;;27.30;52.72;100414.59;4867751;29;20085;-81
2021/08/13 01:45:51;;;;;;;6.80;6.03;;;;;;;27.30;52.44;100423.47;4859834;29;20140;-82
2021/08/13 01:48:20;;;;;;;8.35;5.57;;;;;;;27.41;52.17;100425.69;4878632;29;20057;-81
2021/08/13 01:50:49;;;;;;;12.55;6.22;;;;;;;27.40;52.02;100418.69;4861371;29;20098;-82
2021/08/13 01:53:20;;;;;;;6.97;5.22;;;;;;;27.60;51.44;100410.16;4867409;29;20408;-81
2021/08/13 01:55:50;;;;;;;12.15;5.82;;;;;;;27.50;51.67;100410.41;4877054;29;20041;-81
2021/08/13 01:58:21;;;;;;;13.00;5.45;;;;;;;27.48;51.24;100407.06;4859054;29;20140;-81
2021/08/13 02:00:52;;;;;;;9.05;6.50;;;;;;;27.29;52.21;100410.28;4859364;29;20052;-81
2021/08/13 02:03:20;;;;;;;12.23;6.18;;;;;;;27.24;52.02;100401.97;4859495;29;20057;-81
2021/08/13 02:05:52;;;;;;;10.25;5.28;;;;;;;27.30;52.18;100406.56;4859104;29;20068;-82
2021/08/13 02:08:19;;;;;;;6.13;5.45;;;;;;;27.39;51.88;100408.16;4859507;29;20466;-82
2021/08/13 02:10:49;;;;;;;8.38;5.28;;;;;;;27.44;51.77;100400.44;4867927;29;20057;-82
2021/08/13 02:13:17;;;;;;;7.13;5.47;;;;;;;27.34;51.92;100405.22;4859572;29;20056;-82
2021/08/13 02:16:02;;;;;;;6.60;5.50;;;;;;;27.40;51.42;100397.28;4859124;29;20412;-83
2021/08/13 02:18:31;;;;;;;7.07;6.28;;;;;;;27.30;52.38;100393.19;4859395;29;20049;-82
2021/08/13 02:21:04;;;;;;;6.53;5.32;;;;;;;27.08;52.84;100393.06;4859207;29;20054;-81
2021/08/13 02:23:32;;;;;;;6.10;5.50;;;;;;;27.04;52.76;100381.00;4859132;29;20413;-81
2021/08/13 02:26:03;;;;;;;12.73;7.63;;;;;;;27.11;52.52;100379.31;4859030;29;20061;-85
2021/08/13 02:28:31;;;;;;;7.18;5.97;;;;;;;27.20;52.29;100381.91;4869895;29;20056;-85
2021/08/13 02:30:58;;;;;;;8.88;5.55;;;;;;;27.10;52.60;100380.31;4859081;29;20122;-85
2021/08/13 02:33:27;;;;;;;8.85;5.25;;;;;;;27.13;52.55;100382.63;4872968;29;20504;-85
2021/08/13 02:36:07;;;;;;;6.28;5.60;;;;;;;27.18;52.48;100376.75;4875599;29;20053;-84
2021/08/13 02:38:45;;;;;;;7.07;6.47;;;;;;;27.24;52.23;100383.22;4858880;29;20045;-85
2021/08/13 02:41:13;;;;;;;6.18;5.53;;;;;;;27.29;51.88;100378.16;4864470;29;20049;-85
2021/08/13 02:43:44;;;;;;;11.15;5.60;;;;;;;27.30;51.85;100377.13;4865650;29;20053;-86
2021/08/13 02:46:14;;;;;;;6.22;5.72;;;;;;;27.10;53.06;100377.63;4870583;29;20124;-87
2021/08/13 02:48:45;;;;;;;6.80;5.40;;;;;;;27.18;52.62;100373.25;4863591;29;20049;-85
2021/08/13 02:51:17;;;;;;;9.43;5.60;;;;;;;27.17;52.47;100376.94;4858930;29;20127;-85
2021/08/13 02:53:48;;;;;;;5.70;5.10;;;;;;;27.11;52.91;100368.63;4868914;29;20057;-85
2021/08/13 02:56:19;;;;;;;10.65;5.35;;;;;;;27.09;53.07;100365.28;4859648;29;20053;-85
2021/08/13 02:58:50;;;;;;;8.52;6.40;;;;;;;26.98;53.15;100367.53;4858281;29;20058;-84
2021/08/13 03:01:21;;;;;;;11.73;5.40;;;;;;;26.88;53.67;100367.78;4875284;29;20053;-85
2021/08/13 03:03:52;;;;;;;10.02;6.25;;;;;;;26.93;53.48;100364.56;4858561;29;20398;-85
2021/08/13 03:06:23;;;;;;;12.95;5.65;;;;;;;26.91;53.37;100370.09;4862580;29;20535;-85
2021/08/13 03:08:51;;;;;;;11.48;5.30;;;;;;;26.80;53.80;100362.50;4862161;29;20505;-85
2021/08/13 03:11:19;;;;;;;6.68;5.63;;;;;;;26.73;53.99;100364.22;4864330;29;20041;-85
2021/08/13 03:13:46;;;;;;;9.43;5.43;;;;;;;26.72;54.06;100360.72;4878352;29;20119;-84
2021/08/13 03:16:14;;;;;;;7.32;5.95;;;;;;;26.88;53.01;100357.06;4878517;29;20045;-87
2021/08/13 03:18:47;;;;;;;6.22;5.50;;;;;;;26.85;53.16;100346.75;4867781;29;20045;-87
2021/08/13 03:21:15;;;;;;;6.15;5.65;;;;;;;26.86;53.46;100353.75;4862012;29;20081;-86
2021/08/13 03:23:43;;;;;;;12.15;5.25;;;;;;;26.82;53.34;100365.81;4862680;29;20443;-86
2021/08/13 03:26:12;;;;;;;6.60;5.07;;;;;;;26.86;53.15;100365.28;4864132;29;20049;-85
2021/08/13 03:28:40;;;;;;;7.60;6.10;;;;;;;26.63;54.14;100359.97;4875642;29;20457;-88
2021/08/13 03:31:08;;;;;;;10.43;5.07;;;;;;;26.75;53.51;100367.56;4868458;29;20046;-86
2021/08/13 03:33:37;;;;;;;7.88;5.53;;;;;;;26.81;53.09;100362.31;4873418;29;20045;-88
2021/08/13 03:36:06;;;;;;;7.85;5.38;;;;;;;26.73;53.15;100364.22;4868364;29;20053;-85
2021/08/13 03:38:36;;;;;;;6.43;5.60;;;;;;;26.76;53.42;100358.50;4867047;29;20049;-85
2021/08/13 03:41:04;;;;;;;8.82;5.10;;;;;;;26.80;53.06;100360.66;4867913;29;20111;-87
2021/08/13 03:43:31;;;;;;;9.25;5.03;;;;;;;26.79;53.39;100366.16;4863625;29;20080;-86
2021/08/13 03:45:58;;;;;;;8.40;5.93;;;;;;;26.68;53.94;100366.59;4870432;29;20034;-86
2021/08/13 03:48:26;;;;;;;8.25;5.43;;;;;;;26.71;53.73;100371.59;4867774;29;20081;-86
2021/08/13 03:50:53;;;;;;;10.10;4.97;;;;;;;26.58;54.36;100375.69;4869020;29;20116;-86
2021/08/13 03:53:20;;;;;;;9.77;5.80;;;;;;;26.52;54.39;100380.91;4863380;29;20296;-86
2021/08/13 03:55:47;;;;;;;7.88;5.63;;;;;;;26.64;54.11;100383.00;4869564;29;20041;-85
2021/08/13 03:58:16;;;;;;;8.60;5.65;;;;;;;26.70;54.04;100381.47;4864232;29;20496;-88
2021/08/13 04:00:43;;;;;;;7.93;5.93;;;;;;;26.81;53.59;100372.19;4868418;29;20133;-87
2021/08/13 04:03:11;;;;;;;7.47;6.25;;;;;;;26.52;54.19;100376.38;4870305;29;20107;-88
2021/08/13 04:05:39;;;;;;;6.43;5.70;;;;;;;26.72;53.63;100370.56;4865672;29;20049;-87
2021/08/13 04:08:06;;;;;;;9.70;5.03;;;;;;;26.78;52.90;100373.34;4872797;29;20061;-88
2021/08/13 04:10:33;;;;;;;11.65;6.50;;;;;;;26.79;52.65;100367.03;4866245;29;20093;-85
2021/08/13 04:13:01;;;;;;;6.55;5.45;;;;;;;26.82;52.69;100372.00;4874931;29;20820;-83
2021/08/13 04:15:29;;;;;;;7.30;6.30;;;;;;;26.76;52.87;100379.91;4865461;29;20109;-84
2021/08/13 04:17:57;;;;;;;6.45;5.72;;;;;;;26.68;53.39;100383.47;4873103;29;20501;-84
2021/08/13 04:20:27;;;;;;;9.18;6.25;;;;;;;26.75;53.07;100387.09;4868241;29;20101;-86
2021/08/13 04:22:59;;;;;;;6.88;6.18;;;;;;;26.67;53.44;100397.00;4861942;29;20042;-85
2021/08/13 04:25:26;;;;;;;6.80;5.88;;;;;;;26.72;53.38;100391.97;4864089;29;20060;-84
2021/08/13 04:27:55;;;;;;;12.55;7.22;;;;;;;26.44;54.90;100389.81;4872123;29;20043;-85
2021/08/13 04:30:24;;;;;;;7.07;6.35;;;;;;;26.28;55.09;100403.22;4863278;29;20408;-84
2021/08/13 04:32:51;;;;;;;7.85;6.18;;;;;;;26.31;55.47;100408.22;4867332;29;20046;-85
2021/08/13 04:35:19;;;;;;;6.30;4.95;;;;;;;26.36;55.00;100414.69;4867562;29;20037;-85
2021/08/13 04:37:45;;;;;;;8.77;6.40;;;;;;;26.59;54.42;100416.63;4866280;29;20057;-85
2021/08/13 04:40:18;;;;;;;13.60;6.55;;;;;;;26.22;55.53;100410.09;4860207;29;20037;-85
2021/08/13 04:42:50;;;;;;;11.27;6.63;;;;;;;26.22;55.68;100419.97;4868969;29;20148;-84
2021/08/13 04:45:19;;;;;;;11.80;7.10;;;;;;;26.26;55.82;100437.28;4866540;29;20056;-87
2021/08/13 04:47:46;;;;;;;14.70;5.65;;;;;;;26.27;55.45;100437.13;4856581;29;20105;-87
2021/08/13 04:50:13;;;;;;;9.32;5.97;;;;;;;25.80;56.90;100448.63;4876864;29;20041;-84
2021/08/13 04:52:46;;;;;;;11.40;6.82;;;;;;;25.81;57.02;100454.81;4878346;29;20045;-85
2021/08/13 04:55:18;;;;;;;6.55;5.40;;;;;;;25.82;57.11;100440.44;4872543;29;20079;-86
2021/08/13 04:57:47;;;;;;;7.13;6.43;;;;;;;25.70;57.45;100444.47;4870540;29;20048;-85
2021/08/13 05:00:15;;;;;;;7.22;6.10;;;;;;;25.76;57.74;100446.47;4863522;29;20408;-85
2021/08/13 05:02:42;;;;;;;6.80;6.18;;;;;;;26.05;56.94;100444.06;4868015;29;20042;-84
2021/08/13 05:05:09;;;;;;;9.30;6.25;;;;;;;26.13;56.62;100444.03;4866030;29;20636;-87
2021/08/13 05:07:36;;;;;;;10.85;6.63;;;;;;;26.16;56.72;100450.06;4861762;29;20401;-88
2021/08/13 05:10:13;;;;;;;11.52;6.38;;;;;;;26.19;56.48;100444.34;4871496;29;20039;-84
2021/08/13 05:12:40;;;;;;;6.82;6.13;;;;;;;26.17;56.48;100447.19;4866204;29;20048;-86
2021/08/13 05:15:09;;;;;;;14.75;7.05;;;;;;;26.22;56.42;100454.69;4865753;29;20053;-85
2021/08/13 05:17:38;;;;;;;7.60;6.88;;;;;;;26.20;56.61;100446.84;4868483;29;20056;-84
2021/08/13 05:20:08;;;;;;;10.95;6.35;;;;;;;26.34;56.06;100451.47;4872995;29;20078;-85
2021/08/13 05:22:39;;;;;;;9.27;5.80;;;;;;;26.45;57.36;100454.78;4863460;29;20060;-85
2021/08/13 05:25:11;;;;;;;22.15;6.80;;;;;;;26.46;56.36;100454.59;4863123;29;20049;-83
2021/08/13 05:27:38;;;;;;;8.82;6.53;;;;;;;26.40;56.70;100460.63;4864539;29;20077;-84
2021/08/13 05:30:09;;;;;;;9.85;6.05;;;;;;;26.38;56.30;100458.13;4861153;29;20089;-82
2021/08/13 05:32:41;;;;;;;8.60;6.20;;;;;;;26.43;55.98;100454.13;4886678;29;20045;-82
2021/08/13 05:35:10;;;;;;;11.57;6.40;;;;;;;26.34;56.19;100455.97;4863919;29;20441;-81
2021/08/13 05:37:37;;;;;;;6.75;6.05;;;;;;;26.30;56.31;100465.34;4860861;29;20410;-81
2021/08/13 05:40:05;;;;;;;8.05;6.57;;;;;;;26.41;55.74;100466.78;4865604;29;20085;-84
2021/08/13 05:42:32;;;;;;;9.98;5.95;;;;;;;26.53;57.11;100470.81;4862642;29;20781;-85
2021/08/13 05:44:59;;;;;;;9.52;6.03;;;;;;;26.29;58.70;100469.84;4858638;29;20109;-83
2021/08/13 05:47:27;;;;;;;13.40;5.90;;;;;;;26.25;59.54;100478.38;4861258;29;20061;-86
2021/08/13 05:49:54;;;;;;;12.85;6.03;;;;;;;26.24;58.90;100490.09;4864418;29;20101;-89
2021/08/13 05:52:20;;;;;;;9.05;6.50;;;;;;;26.26;58.59;100493.41;4863978;29;20037;-87
2021/08/13 05:54:47;;;;;;;6.93;6.03;;;;;;;26.30;57.98;100492.06;4860341;29;20045;-85
2021/08/13 05:57:15;;;;;;;11.80;5.88;;;;;;;26.49;56.33;100502.38;4860091;29;20087;-91
2021/08/13 05:59:41;;;;;;;9.70;6.80;;;;;;;26.59;56.11;100512.88;4859881;29;20057;-89
2021/08/13 06:02:08;;;;;;;8.45;6.10;;;;;;;26.61;56.33;100513.53;4862552;29;20041;-89
2021/08/13 06:04:35;;;;;;;8.00;5.90;;;;;;;26.67;56.13;100518.16;4864198;29;20077;-87
2021/08/13 06:07:02;;;;;;;7.32;5.75;;;;;;;26.81;55.39;100520.09;4865827;29;20076;-89
2021/08/13 06:09:29;;;;;;;10.85;6.63;;;;;;;26.60;56.08;100514.53;4858483;29;20410;-81
2021/08/13 06:11:56;;;;;;;12.20;7.10;;;;;;;26.50;56.54;100514.72;4868452;29;20044;-85
2021/08/13 06:14:23;;;;;;;7.32;6.07;;;;;;;26.45;56.77;100517.09;4869957;29;20060;-80
2021/08/13 06:16:50;;;;;;;12.52;8.00;;;;;;;26.56;56.77;100513.22;4875213;29;20049;-87
2021/08/13 06:19:17;;;;;;;7.75;5.57;;;;;;;26.50;57.12;100517.41;4865825;29;20044;-84
2021/08/13 06:21:45;;;;;;;6.68;5.93;;;;;;;26.54;57.28;100517.91;4882416;29;20052;-82
2021/08/13 06:24:11;;;;;;;7.10;6.03;;;;;;;26.61;56.18;100521.53;4860581;29;20056;-83
2021/08/13 06:26:38;;;;;;;10.43;6.82;;;;;;;26.71;57.67;100518.66;4866081;29;20041;-86
2021/08/13 06:29:06;;;;;;;17.90;7.13;;;;;;;26.76;56.75;100524.31;4865743;29;20339;-84
2021/08/13 06:31:33;;;;;;;8.88;6.80;;;;;;;26.80;56.12;100513.09;4863017;29;20041;-83
2021/08/13 06:34:00;;;;;;;10.80;6.15;;;;;;;26.86;55.89;100516.91;4885758;29;20038;-82
2021/08/13 06:36:27;;;;;;;11.45;6.80;;;;;;;26.94;56.30;100519.53;4859029;29;20101;-84
2021/08/13 06:38:54;;;;;;;12.13;6.38;;;;;;;26.99;56.33;100519.81;4861161;29;20098;-83
2021/08/13 06:41:21;;;;;;;7.32;6.32;;;;;;;26.96;56.62;100524.72;4864674;29;20049;-85
2021/08/13 06:44:14;;;;;;;9.98;6.07;;;;;;;27.12;55.78;100522.78;4857937;29;20053;-83
2021/08/13 06:46:41;;;;;;;7.35;6.45;;;;;;;27.17;56.02;100522.28;4860395;29;20045;-83
2021/08/13 06:49:08;;;;;;;8.85;6.50;;;;;;;27.25;55.64;100524.88;4863620;29;20061;-86
2021/08/13 06:51:35;;;;;;;11.93;6.28;;;;;;;27.34;55.42;100518.47;4863315;29;20664;-83
2021/08/13 06:54:02;;;;;;;12.75;6.53;;;;;;;27.34;55.15;100529.16;4862582;29;20168;-84
2021/08/13 06:56:29;;;;;;;9.13;6.20;;;;;;;27.41;54.78;100523.91;4865984;29;20049;-85
2021/08/13 06:58:56;;;;;;;10.20;6.35;;;;;;;27.35;54.79;100532.66;4864335;29;20050;-83
2021/08/13 07:01:23;;;;;;;16.13;7.10;;;;;;;27.41;54.82;100534.63;4863929;29;20038;-86
2021/08/13 07:03:50;;;;;;;7.28;6.53;;;;;;;27.50;54.20;100536.25;4867415;29;20053;-82
2021/08/13 07:06:17;;;;;;;12.52;6.90;;;;;;;27.57;53.96;100539.84;4864543;29;20053;-84
2021/08/13 07:08:44;;;;;;;8.48;6.13;;;;;;;27.79;52.94;100537.34;4876259;29;20052;-80
2021/08/13 07:11:12;;;;;;;8.68;6.68;;;;;;;27.74;52.14;100543.25;4870696;29;20045;-83
2021/08/13 07:13:38;;;;;;;10.00;5.82;;;;;;;27.87;52.06;100534.59;4867480;29;20117;-85
2021/08/13 07:16:07;;;;;;;8.15;7.10;;;;;;;27.99;51.98;100549.22;4871067;29;20049;-85
2021/08/13 07:18:35;;;;;;;11.27;6.28;;;;;;;27.82;52.32;100548.53;4863490;29;20102;-85
2021/08/13 07:21:02;;;;;;;12.38;6.75;;;;;;;27.78;53.42;100549.91;4867193;29;20045;-82
2021/08/13 07:23:29;;;;;;;13.55;7.05;;;;;;;27.94;53.60;100556.97;4868493;29;20053;-83
2021/08/13 07:25:58;;;;;;;15.70;9.35;;;;;;;27.90;55.45;100556.50;4870113;29;20037;-84
2021/08/13 07:28:24;;;;;;;15.80;8.07;;;;;;;28.16;54.67;100564.09;4863014;29;20045;-83
2021/08/13 07:30:51;;;;;;;12.18;7.90;;;;;;;28.12;55.07;100560.13;4871532;29;20077;-83
2021/08/13 07:33:22;;;;;;;13.25;8.02;;;;;;;28.03;53.82;100558.56;4865920;29;21155;-79
2021/08/13 07:35:50;;;;;;;8.60;7.40;;;;;;;27.85;53.72;100563.41;4886105;29;20519;-85
2021/08/13 07:38:16;;;;;;;8.85;8.05;;;;;;;27.77;53.93;100577.72;4871943;29;20037;-86
2021/08/13 07:40:43;;;;;;;12.57;9.77;;;;;;;27.72;54.31;100572.06;4865530;29;20060;-84
2021/08/13 07:43:10;;;;;;;20.75;9.35;;;;;;;27.65;54.94;100568.44;4868141;29;20056;-88
2021/08/13 07:45:37;;;;;;;19.00;10.13;;;;;;;27.92;54.47;100573.22;4854414;29;20049;-79
2021/08/13 07:48:04;;;;;;;10.23;8.88;;;;;;;27.94;53.52;100578.41;4862028;29;20093;-82
2021/08/13 07:50:31;;;;;;;14.73;8.68;;;;;;;27.91;53.64;100573.41;4864520;29;20523;-82
2021/08/13 07:52:59;;;;;;;10.98;9.27;;;;;;;27.97;54.07;100579.91;4865584;29;20045;-84
2021/08/13 07:55:28;;;;;;;8.40;7.60;;;;;;;27.94;54.09;100587.28;4865689;29;20053;-83
2021/08/13 07:57:54;;;;;;;10.77;8.82;;;;;;;27.79;55.37;100585.56;4865324;29;20052;-83
2021/08/13 08:00:22;;;;;;;9.27;8.30;;;;;;;28.06;54.37;100587.66;4865600;29;20137;-82
2021/08/13 08:02:50;;;;;;;9.93;8.93;;;;;;;27.95;55.21;100585.41;4860989;29;20053;-82
2021/08/13 08:05:17;;;;;;;10.50;9.10;;;;;;;28.06;54.06;100590.34;4861344;29;20054;-82
2021/08/13 08:07:43;;;;;;;15.57;10.07;;;;;;;28.10;54.23;100594.31;4862454;29;20052;-90
2021/08/13 08:10:11;;;;;;;15.77;9.38;;;;;;;28.37;54.20;100592.06;4863951;29;20046;-89
2021/08/13 08:12:38;;;;;;;16.20;9.43;;;;;;;28.32;54.10;100594.44;4866105;29;20064;-89
2021/08/13 08:15:05;;;;;;;11.25;9.13;;;;;;;28.74;51.89;100590.31;4867902;29;21073;-89
2021/08/13 08:17:32;;;;;;;15.95;8.93;;;;;;;28.67;52.95;100596.44;4862521;29;20064;-89
2021/08/13 08:19:59;;;;;;;12.30;9.90;;;;;;;28.51;53.19;100590.44;4871759;29;20052;-88
2021/08/13 08:22:25;;;;;;;13.02;9.75;;;;;;;28.61;52.59;100583.75;4866676;29;20355;-87
2021/08/13 08:24:52;;;;;;;11.68;7.93;;;;;;;28.83;52.03;100594.56;4862621;29;20048;-88
2021/08/13 08:27:19;;;;;;;14.70;9.30;;;;;;;28.79;52.65;100586.06;4864168;29;20061;-90
2021/08/13 08:29:45;;;;;;;13.23;9.68;;;;;;;28.97;52.91;100591.88;4866682;29;20060;-91
2021/08/13 08:32:12;;;;;;;10.68;9.57;;;;;;;28.96;52.19;100595.56;4867708;29;20373;-91
2021/08/13 08:34:39;;;;;;;11.73;9.95;;;;;;;29.05;51.12;100599.00;4868279;29;20049;-89
2021/08/13 08:37:09;;;;;;;12.50;8.73;;;;;;;29.03;51.38;100595.69;4868542;29;20052;-87
2021/08/13 08:39:38;;;;;;;10.63;9.50;;;;;;;29.13;51.99;100593.50;4871407;29;20073;-87
2021/08/13 08:42:12;;;;;;;10.70;9.23;;;;;;;28.81;52.46;100602.78;4866203;29;20053;-87
2021/08/13 08:44:39;;;;;;;9.85;8.95;;;;;;;29.08;51.57;100597.78;4862438;29;20156;-89
2021/08/13 08:47:09;;;;;;;15.13;11.27;;;;;;;28.94;51.53;100597.63;4869886;29;20057;-89
2021/08/13 08:49:40;;;;;;;16.25;10.15;;;;;;;29.21;51.70;100606.00;4871627;29;20049;-89
2021/08/13 08:52:07;;;;;;;11.43;9.35;;;;;;;29.29;51.48;100608.53;4871203;29;20050;-90
2021/08/13 08:54:36;;;;;;;14.07;10.90;;;;;;;29.11;52.28;100608.13;4868446;29;20049;-89
2021/08/13 08:57:05;;;;;;;14.30;10.32;;;;;;;29.10;52.27;100607.31;4871595;29;20093;-89
2021/08/13 08:59:40;;;;;;;13.07;9.68;;;;;;;29.18;51.71;100600.97;4868719;29;20129;-90
2021/08/13 09:02:07;;;;;;;12.15;10.23;;;;;;;29.20;51.87;100607.00;4868382;29;20050;-89
2021/08/13 09:04:34;;;;;;;13.85;10.60;;;;;;;29.26;51.79;100608.94;4868628;29;20052;-89
2021/08/13 09:07:01;;;;;;;13.48;11.63;;;;;;;29.26;51.75;100606.25;4866575;29;20056;-91
2021/08/13 09:09:28;;;;;;;11.85;10.32;;;;;;;29.34;52.42;100607.97;4870021;29;20051;-89
2021/08/13 09:11:56;;;;;;;16.77;11.98;;;;;;;29.38;51.80;100603.91;4868842;29;20052;-89
2021/08/13 09:14:36;;;;;;;16.25;12.43;;;;;;;29.16;52.62;100611.91;4866480;29;20057;-89
2021/08/13 09:17:03;;;;;;;17.08;12.40;;;;;;;29.06;52.61;100606.00;4867983;29;20118;-88
2021/08/13 09:19:57;;;;;;;21.92;11.55;;;;;;;29.16;52.27;100606.56;4861003;29;20037;-90
2021/08/13 09:22:25;;;;;;;15.10;10.37;;;;;;;29.19;52.46;100611.56;4869907;29;20068;-89
2021/08/13 09:24:54;;;;;;;14.15;10.60;;;;;;;29.49;51.34;100608.75;4864863;29;20800;-89
2021/08/13 09:27:45;;;;;;;13.00;10.40;;;;;;;29.40;51.48;100608.06;4874555;29;20166;-88
2021/08/13 09:30:37;;;;;;;17.13;12.02;;;;;;;29.68;50.88;100604.66;4863582;29;20096;-89
2021/08/13 09:33:05;;;;;;;15.40;11.13;;;;;;;29.49;50.80;100614.13;4870012;29;20110;-90
2021/08/13 09:35:34;;;;;;;17.95;10.73;;;;;;;29.78;49.83;100612.38;4864906;29;20045;-84
2021/08/13 09:38:09;;;;;;;14.90;9.30;;;;;;;29.81;49.63;100611.97;4863665;29;20105;-83
2021/08/13 09:40:38;;;;;;;13.57;9.43;;;;;;;29.82;49.53;100613.63;4863945;29;20069;-83
2021/08/13 09:43:05;;;;;;;11.70;9.20;;;;;;;29.80;49.05;100604.94;4861199;29;20061;-83
2021/08/13 09:45:33;;;;;;;9.02;7.95;;;;;;;29.84;48.70;100607.06;4870551;29;20564;-81
2021/08/13 09:48:00;;;;;;;11.20;7.75;;;;;;;29.96;47.85;100612.75;4867664;29;20046;-83
2021/08/13 09:50:39;;;;;;;12.60;7.40;;;;;;;29.99;47.81;100602.44;4867037;29;20046;-83
2021/08/13 09:53:13;;;;;;;10.30;7.70;;;;;;;29.89;46.65;100596.56;4864047;29;20093;-84
2021/08/13 09:55:41;;;;;;;12.82;8.43;;;;;;;30.01;47.40;100608.44;4867901;29;20045;-83
2021/08/13 09:58:09;;;;;;;15.38;9.48;;;;;;;30.08;49.29;100611.16;4863834;29;20077;-83
2021/08/13 10:00:46;;;;;;;13.20;11.65;;;;;;;29.77;49.70;100614.22;4871850;29;20475;-82
2021/08/13 10:03:14;;;;;;;16.45;9.98;;;;;;;29.86;48.74;100612.22;4876093;29;20053;-83
2021/08/13 10:05:42;;;;;;;12.15;10.60;;;;;;;29.92;48.33;100611.47;4866791;29;20569;-84
2021/08/13 10:08:09;;;;;;;23.77;8.93;;;;;;;30.10;47.94;100614.50;4874552;29;20112;-84
2021/08/13 10:10:38;;;;;;;12.75;9.43;;;;;;;30.04;47.89;100617.94;4865202;29;20104;-85
2021/08/13 10:13:10;;;;;;;15.05;8.02;;;;;;;30.08;48.03;100608.47;4858265;29;20049;-85
2021/08/13 10:15:44;;;;;;;12.68;8.93;;;;;;;30.39;46.85;100607.28;4867557;29;20053;-88
2021/08/13 10:18:16;;;;;;;17.77;13.50;;;;;;;30.24;48.84;100610.06;4867521;29;20045;-86
2021/08/13 10:20:48;;;;;;;15.20;11.10;;;;;;;30.19;48.31;100609.84;4867115;29;20537;-87
2021/08/13 10:23:21;;;;;;;18.02;13.60;;;;;;;30.03;49.12;100608.22;4866353;29;20052;-94
2021/08/13 10:25:51;;;;;;;18.52;14.63;;;;;;;29.99;50.30;100601.59;4860702;29;20049;-85
2021/08/13 10:28:27;;;;;;;21.20;13.82;;;;;;;29.89;49.91;100606.47;4872442;29;20048;-84
2021/08/13 10:31:00;;;;;;;19.60;13.77;;;;;;;30.23;48.86;100592.28;4861622;29;20053;-82
2021/08/13 10:33:29;;;;;;;21.48;13.18;;;;;;;30.43;48.76;100597.81;4861210;29;20049;-86
2021/08/13 10:35:58;;;;;;;16.27;12.55;;;;;;;30.32;48.01;100601.03;4860154;29;20401;-84
2021/08/13 10:38:29;;;;;;;14.75;12.15;;;;;;;30.23;47.19;100593.13;4862463;29;20501;-84
2021/08/13 10:40:56;;;;;;;17.60;13.43;;;;;;;30.45;47.65;100593.88;4861786;29;20065;-88
2021/08/13 10:43:30;;;;;;;19.30;12.05;;;;;;;30.71;46.84;100585.13;4861808;29;20046;-85
2021/08/13 10:46:02;;;;;;;20.00;10.88;;;;;;;30.60;46.73;100590.22;4861661;29;20054;-90
2021/08/13 10:48:35;;;;;;;17.48;12.25;;;;;;;30.72;46.34;100583.28;4858624;29;20381;-84
2021/08/13 10:51:04;;;;;;;19.48;13.05;;;;;;;30.66;46.50;100582.19;4846167;29;20080;-83
2021/08/13 11:08:01;;;;;;;16.73;11.82;;;;;;;31.13;44.11;100575.16;5074855;27;20446;-79
2021/08/13 11:10:48;;;;;;;13.13;11.43;;;;;;;31.34;44.16;100584.16;5079443;28;20054;-81
2021/08/13 11:13:19;;;;;;;18.73;13.05;;;;;;;30.95;44.79;100575.72;5081336;28;20047;-83
2021/08/13 11:15:50;;;;;;;13.75;11.48;;;;;;;30.98;44.04;100574.47;5073342;28;20162;-79
2021/08/13 11:18:33;;;;;;;19.15;11.60;;;;;;;30.90;43.36;100577.38;5061971;28;20147;-81
2021/08/13 11:21:06;;;;;;;14.18;11.02;;;;;;;31.04;42.78;100563.72;5081914;28;20529;-79
2021/08/13 11:23:57;;;;;;;15.60;9.43;;;;;;;31.15;42.03;100574.94;5079994;28;20048;-81
2021/08/13 11:26:47;;;;;;;12.00;10.35;;;;;;;31.33;41.69;100577.09;5085124;28;20055;-81
2021/08/13 11:29:34;;;;;;;20.73;12.55;;;;;;;30.98;44.32;100567.22;5081238;28;20047;-80
2021/08/13 11:32:17;;;;;;;13.75;12.18;;;;;;;31.09;44.21;100576.59;5087126;28;20459;-78
2021/08/13 11:34:51;;;;;;;13.07;11.07;;;;;;;31.11;42.95;100573.69;5086904;28;20113;-79
2021/08/13 11:37:38;;;;;;;11.85;10.60;;;;;;;31.32;42.92;100578.09;5083090;28;20071;-78
2021/08/13 11:40:17;;;;;;;17.33;10.38;;;;;;;31.13;43.21;100577.84;5080519;28;20117;-82
2021/08/13 11:42:48;;;;;;;14.63;10.23;;;;;;;31.02;42.56;100571.19;5075917;28;20044;-81
2021/08/13 11:45:16;;;;;;;10.00;8.98;;;;;;;31.45;42.04;100570.06;5071543;28;20044;-81
2021/08/13 11:47:47;;;;;;;11.00;9.73;;;;;;;31.35;41.15;100558.88;5078731;28;20098;-77